DHKAI EDLW-EDLW

Flight info

Callsign DHKAI
Flight time 0h 4m
Altitude
Route DCT
Aircraft DA42

Departure

Time 2026-04-29 12:03
Airport Dortmund Airport (EDLW)

Arrival

Time 2026-04-29 12:08
Airport Dortmund Airport (EDLW)
Time Latitude Longitude Altitude Speed Heading
2026-04-29 11:54 51.51236 7.60523 443 ft 0 kts 104°
2026-04-29 11:55 51.51236 7.60526 443 ft 1 kts 61°
2026-04-29 11:55 51.51242 7.60520 438 ft 3 kts 261°
2026-04-29 11:55 51.51243 7.60443 443 ft 9 kts 249°
2026-04-29 11:56 51.51211 7.60345 437 ft 11 kts 239°
2026-04-29 11:56 51.51165 7.60240 434 ft 9 kts 236°
2026-04-29 11:56 51.51171 7.60163 436 ft 8 kts 341°
2026-04-29 11:56 51.51211 7.60205 441 ft 7 kts 61°
2026-04-29 11:57 51.51235 7.60274 441 ft 9 kts 59°
2026-04-29 11:57 51.51268 7.60367 434 ft 10 kts 60°
2026-04-29 11:57 51.51304 7.60469 441 ft 11 kts 60°
2026-04-29 11:57 51.51339 7.60571 441 ft 10 kts 61°
2026-04-29 11:58 51.51388 7.60710 430 ft 18 kts 61°
2026-04-29 11:58 51.51445 7.60870 429 ft 14 kts 60°
2026-04-29 11:58 51.51493 7.61005 429 ft 14 kts 62°
2026-04-29 11:58 51.51542 7.61057 429 ft 6 kts 347°
2026-04-29 11:59 51.51549 7.61054 428 ft 0 kts 335°
2026-04-29 11:59 51.51565 7.61041 424 ft 8 kts 322°
2026-04-29 11:59 51.51547 7.60932 425 ft 13 kts 242°
2026-04-29 12:00 51.51490 7.60766 414 ft 20 kts 241°
2026-04-29 12:00 51.51452 7.60655 412 ft 12 kts 241°
2026-04-29 12:00 51.51425 7.60579 418 ft 0 kts 240°
2026-04-29 12:01 51.51373 7.60435 413 ft 22 kts 244°
2026-04-29 12:01 51.51398 7.60278 413 ft 16 kts 332°
2026-04-29 12:02 51.51482 7.60247 408 ft 12 kts 31°
2026-04-29 12:02 51.51568 7.60468 408 ft 50 kts 61°
2026-04-29 12:02 51.51807 7.61132 463 ft 82 kts 61°
2026-04-29 12:02 51.52106 7.61937 737 ft 86 kts 61°
2026-04-29 12:03 51.52451 7.62851 937 ft 100 kts 59°
2026-04-29 12:03 51.52801 7.63850 1186 ft 107 kts 60°
2026-04-29 12:03 51.53381 7.64602 1377 ft 118 kts 16°
2026-04-29 12:03 51.54206 7.64139 1423 ft 136 kts 336°
2026-04-29 12:04 51.55011 7.63326 1505 ft 139 kts 327°
2026-04-29 12:04 51.55461 7.61986 1770 ft 140 kts 284°
2026-04-29 12:04 51.55294 7.60438 2003 ft 141 kts 242°
2026-04-29 12:04 51.54831 7.58979 1959 ft 154 kts 238°
2026-04-29 12:05 51.54282 7.57521 2029 ft 150 kts 234°
2026-04-29 12:05 51.53614 7.56155 1932 ft 156 kts 220°
2026-04-29 12:05 51.52788 7.55087 1911 ft 149 kts 211°
2026-04-29 12:05 51.51905 7.54516 1831 ft 131 kts 162°
2026-04-29 12:06 51.51053 7.54877 1796 ft 122 kts 152°
2026-04-29 12:06 51.50369 7.55548 1764 ft 107 kts 111°
2026-04-29 12:06 51.50358 7.56695 1461 ft 106 kts 75°
2026-04-29 12:06 51.50624 7.57772 1087 ft 100 kts 64°
2026-04-29 12:07 51.50932 7.58630 847 ft 80 kts 62°
2026-04-29 12:07 51.51173 7.59330 691 ft 66 kts 61°
2026-04-29 12:07 51.51379 7.59915 569 ft 60 kts 62°
2026-04-29 12:07 51.51592 7.60530 449 ft 61 kts 64°
2026-04-29 12:08 51.51769 7.61045 415 ft 39 kts 60°
2026-04-29 12:08 51.51980 7.61626 437 ft 79 kts 60°
2026-04-29 12:08 51.52292 7.62450 660 ft 91 kts 59°
2026-04-29 12:08 51.52635 7.63399 1009 ft 102 kts 59°
2026-04-29 12:09 51.53011 7.64379 1312 ft 104 kts 54°
2026-04-29 12:09 51.53669 7.64804 1483 ft 117 kts 359°
2026-04-29 12:09 51.54403 7.64073 1552 ft 136 kts 327°
2026-04-29 12:09 51.55123 7.63008 1606 ft 145 kts 312°
2026-04-29 12:10 51.55182 7.61422 1648 ft 157 kts 237°
2026-04-29 12:10 51.54590 7.59983 1830 ft 156 kts 231°
2026-04-29 12:10 51.53970 7.58492 1757 ft 162 kts 231°
2026-04-29 12:10 51.53310 7.57003 1698 ft 164 kts 231°
2026-04-29 12:11 51.52623 7.55627 1824 ft 156 kts 227°
2026-04-29 12:11 51.51884 7.54347 1663 ft 155 kts 209°
2026-04-29 12:11 51.50946 7.54112 1530 ft 122 kts 154°
2026-04-29 12:11 51.50317 7.54714 1445 ft 98 kts 129°
2026-04-29 12:12 51.49846 7.55422 1413 ft 85 kts 118°
2026-04-29 12:12 51.49991 7.56211 1217 ft 82 kts 56°
2026-04-29 12:12 51.50280 7.56878 1158 ft 69 kts 57°
2026-04-29 12:12 51.50544 7.57527 1067 ft 66 kts 61°
2026-04-29 12:13 51.50753 7.58144 932 ft 65 kts 62°
2026-04-29 12:13 51.50979 7.58778 814 ft 66 kts 63°
2026-04-29 12:13 51.51194 7.59395 687 ft 58 kts 62°
2026-04-29 12:13 51.51407 7.59996 540 ft 62 kts 62°
2026-04-29 12:14 51.51605 7.60573 420 ft 58 kts 62°
2026-04-29 12:14 51.51769 7.61045 415 ft 48 kts 61°
2026-04-29 12:14 51.51999 7.61676 512 ft 75 kts 62°
2026-04-29 12:14 51.52290 7.62464 749 ft 96 kts 57°
2026-04-29 12:15 51.52639 7.63399 1171 ft 101 kts 58°
2026-04-29 12:15 51.53229 7.64085 1483 ft 120 kts 15°
2026-04-29 12:15 51.54114 7.63729 1575 ft 142 kts 339°
2026-04-29 12:15 51.54920 7.62739 1632 ft 155 kts 309°
2026-04-29 12:16 51.55035 7.61044 1837 ft 161 kts 246°
2026-04-29 12:16 51.54473 7.59420 1819 ft 169 kts 237°
2026-04-29 12:16 51.53864 7.57813 1838 ft 167 kts 235°
2026-04-29 12:16 51.53250 7.56256 1901 ft 164 kts 236°
2026-04-29 12:17 51.52659 7.54723 2035 ft 162 kts 236°
2026-04-29 12:17 51.52082 7.53136 2019 ft 168 kts 237°
2026-04-29 12:17 51.51355 7.51744 2130 ft 152 kts 194°
2026-04-29 12:17 51.50803 7.52443 2213 ft 118 kts 62°
2026-04-29 12:18 51.51542 7.52221 2313 ft 153 kts 296°
2026-04-29 12:18 51.51081 7.50933 2293 ft 145 kts 175°
2026-04-29 12:18 51.50837 7.51866 2319 ft 122 kts 35°
2026-04-29 12:18 51.51347 7.50992 2321 ft 156 kts 245°
2026-04-29 12:19 51.50450 7.50644 2283 ft 142 kts 154°
2026-04-29 12:19 51.49679 7.51572 2154 ft 138 kts 119°
2026-04-29 12:19 51.49444 7.53025 2021 ft 137 kts 88°
2026-04-29 12:19 51.49602 7.54463 1859 ft 119 kts 77°
2026-04-29 12:20 51.49875 7.55592 1530 ft 100 kts 73°
2026-04-29 12:20 51.50182 7.56457 1278 ft 78 kts 59°
2026-04-29 12:20 51.50427 7.57174 1139 ft 74 kts 61°
2026-04-29 12:20 51.50660 7.57861 1003 ft 69 kts 62°
2026-04-29 12:21 51.50884 7.58521 795 ft 67 kts 60°
2026-04-29 12:21 51.51115 7.59185 703 ft 58 kts 60°
2026-04-29 12:21 51.51322 7.59753 558 ft 64 kts 61°
2026-04-29 12:21 51.51531 7.60356 483 ft 59 kts 63°
2026-04-29 12:22 51.51715 7.60886 412 ft 43 kts 62°
2026-04-29 12:22 51.51870 7.61326 420 ft 64 kts 60°
2026-04-29 12:22 51.52110 7.61992 650 ft 75 kts 61°
2026-04-29 12:22 51.52401 7.62811 974 ft 93 kts 57°
2026-04-29 12:23 51.52804 7.63696 1357 ft 104 kts 41°
2026-04-29 12:23 51.53579 7.63606 1612 ft 142 kts 327°
2026-04-29 12:23 51.53847 7.61987 1703 ft 165 kts 260°
2026-04-29 12:23 51.53481 7.60255 1723 ft 164 kts 247°
2026-04-29 12:24 51.53046 7.58554 1784 ft 163 kts 246°
2026-04-29 12:24 51.52616 7.56791 1653 ft 172 kts 246°
2026-04-29 12:24 51.52181 7.55063 1733 ft 163 kts 246°
2026-04-29 12:24 51.51722 7.53402 1728 ft 157 kts 243°
2026-04-29 12:25 51.51259 7.51848 1772 ft 156 kts 243°
2026-04-29 12:25 51.50771 7.50279 1755 ft 154 kts 244°
2026-04-29 12:25 51.49677 7.47635 1858 ft 126 kts 162°
2026-04-29 12:26 51.49237 7.48554 1960 ft 107 kts 102°
2026-04-29 12:26 51.49045 7.49788 1887 ft 119 kts 97°
2026-04-29 12:26 51.48878 7.51112 1920 ft 121 kts 92°
2026-04-29 12:26 51.48950 7.52482 1830 ft 122 kts 72°
2026-04-29 12:27 51.49203 7.53552 1726 ft 91 kts 67°
2026-04-29 12:27 51.49455 7.54343 1525 ft 73 kts 63°
2026-04-29 12:27 51.49676 7.54976 1384 ft 58 kts 63°
2026-04-29 12:27 51.49804 7.55360 1251 ft 63 kts 60°
2026-04-29 12:28 51.50071 7.56176 1211 ft 56 kts 60°
2026-04-29 12:28 51.50276 7.56749 1139 ft 64 kts 62°
2026-04-29 12:28 51.50424 7.57167 1129 ft 63 kts 62°
2026-04-29 12:28 51.50612 7.57723 1029 ft 56 kts 63°
2026-04-29 12:29 51.50892 7.58543 842 ft 69 kts 60°
2026-04-29 12:29 51.51042 7.58976 803 ft 63 kts 61°
2026-04-29 12:29 51.51261 7.59581 638 ft 64 kts 61°
2026-04-29 12:29 51.51474 7.60192 508 ft 65 kts 60°
2026-04-29 12:30 51.51680 7.60784 414 ft 53 kts 62°
2026-04-29 12:30 51.51831 7.61217 413 ft 55 kts 61°
2026-04-29 12:30 51.52066 7.61874 553 ft 75 kts 61°
2026-04-29 12:30 51.52360 7.62685 832 ft 94 kts 58°
2026-04-29 12:31 51.52730 7.63654 1169 ft 106 kts 59°
2026-04-29 12:31 51.53353 7.64197 1501 ft 122 kts 356°
2026-04-29 12:31 51.54088 7.63258 1690 ft 151 kts 303°
2026-04-29 12:31 51.54060 7.61565 1656 ft 163 kts 241°
2026-04-29 12:32 51.53472 7.59992 1609 ft 164 kts 235°
2026-04-29 12:32 51.52879 7.58477 1633 ft 159 kts 235°
2026-04-29 12:32 51.52262 7.56986 1551 ft 158 kts 236°
2026-04-29 12:32 51.51722 7.55515 1673 ft 146 kts 237°
2026-04-29 12:33 51.51210 7.54123 1686 ft 147 kts 237°
2026-04-29 12:33 51.50699 7.52714 1753 ft 148 kts 238°
2026-04-29 12:33 51.50198 7.51299 1800 ft 145 kts 238°
2026-04-29 12:33 51.49585 7.50035 1723 ft 143 kts 188°
2026-04-29 12:34 51.48905 7.50671 1862 ft 110 kts 103°
2026-04-29 12:34 51.48859 7.51852 1896 ft 102 kts 82°
2026-04-29 12:34 51.48981 7.52908 1793 ft 89 kts 69°
2026-04-29 12:34 51.49244 7.53737 1739 ft 74 kts 60°
2026-04-29 12:35 51.49466 7.54359 1612 ft 63 kts 63°
2026-04-29 12:35 51.49675 7.54960 1524 ft 63 kts 62°
2026-04-29 12:35 51.49887 7.55565 1408 ft 62 kts 57°
2026-04-29 12:35 51.50101 7.56177 1256 ft 69 kts 64°
2026-04-29 12:36 51.50314 7.56852 1217 ft 66 kts 62°
2026-04-29 12:36 51.50524 7.57489 1091 ft 65 kts 63°
2026-04-29 12:36 51.50751 7.58145 978 ft 67 kts 60°
2026-04-29 12:36 51.50968 7.58768 848 ft 63 kts 59°
2026-04-29 12:37 51.51186 7.59374 720 ft 59 kts 58°
2026-04-29 12:37 51.51383 7.59942 623 ft 58 kts 60°
2026-04-29 12:37 51.51587 7.60518 472 ft 63 kts 59°
2026-04-29 12:37 51.51795 7.61109 430 ft 59 kts 61°
2026-04-29 12:38 51.51956 7.61573 411 ft 39 kts 61°
2026-04-29 12:38 51.52077 7.61916 413 ft 31 kts 60°
2026-04-29 12:38 51.52169 7.62178 413 ft 21 kts 60°
2026-04-29 12:38 51.52195 7.62288 413 ft 7 kts 119°
2026-04-29 12:39 51.52151 7.62344 413 ft 10 kts 149°
2026-04-29 12:39 51.52117 7.62374 412 ft 0 kts 149°
2026-04-29 12:40 51.52116 7.62376 412 ft 4 kts 148°
2026-04-29 12:40 51.52058 7.62393 410 ft 16 kts 221°
2026-04-29 12:40 51.51987 7.62202 412 ft 24 kts 241°
2026-04-29 12:40 51.51902 7.61965 412 ft 25 kts 240°
2026-04-29 12:41 51.51803 7.61684 418 ft 37 kts 241°
2026-04-29 12:41 51.51687 7.61357 427 ft 25 kts 244°
2026-04-29 12:41 51.51603 7.61115 419 ft 19 kts 240°
2026-04-29 12:41 51.51537 7.61061 428 ft 11 kts 163°
2026-04-29 12:42 51.51481 7.60974 428 ft 14 kts 242°
2026-04-29 12:42 51.51402 7.60748 426 ft 41 kts 241°
2026-04-29 12:42 51.51276 7.60388 436 ft 35 kts 240°
2026-04-29 12:42 51.51184 7.60168 441 ft 9 kts 165°
2026-04-29 12:43 51.51185 7.60277 443 ft 14 kts 51°
2026-04-29 12:43 51.51199 7.60393 443 ft 7 kts 106°
2026-04-29 12:43 51.51195 7.60415 436 ft 0 kts 102°